createdAt,value
2022-10-11T00:02:38.457Z,15.71
2022-10-11T00:05:40.453Z,15.37
2022-10-11T00:08:41.953Z,15.64
2022-10-11T00:11:43.530Z,15.74
2022-10-11T00:14:44.988Z,15.72
2022-10-11T00:17:47.185Z,15.46
2022-10-11T00:20:48.579Z,15.64
2022-10-11T00:23:50.361Z,15.70
2022-10-11T00:26:51.814Z,15.75
2022-10-11T00:29:53.468Z,15.77
2022-10-11T00:32:54.924Z,15.74
2022-10-11T00:35:58.669Z,15.75
2022-10-11T00:39:00.148Z,15.83
2022-10-11T00:42:01.815Z,15.90
2022-10-11T00:45:31.147Z,16.02
2022-10-11T00:48:50.406Z,16.10
2022-10-11T00:51:58.454Z,16.02
2022-10-11T00:55:04.881Z,15.88
2022-10-11T00:58:07.330Z,15.77
2022-10-11T01:01:09.029Z,15.77
2022-10-11T01:04:10.628Z,15.89
2022-10-11T01:07:13.405Z,15.89
2022-10-11T01:10:14.849Z,16.06
2022-10-11T01:13:47.371Z,16.11
2022-10-11T01:16:56.845Z,16.14
2022-10-11T01:20:21.540Z,16.23
2022-10-11T01:23:42.541Z,16.36
2022-10-11T01:27:37.067Z,16.23
2022-10-11T01:30:38.966Z,16.16
2022-10-11T01:33:49.879Z,16.03
2022-10-11T01:37:05.651Z,16.10
2022-10-11T01:40:16.333Z,16.28
2022-10-11T01:43:20.288Z,16.24
2022-10-11T01:46:22.330Z,16.14
2022-10-11T01:49:23.676Z,16.17
2022-10-11T01:52:33.500Z,16.21
2022-10-11T01:55:49.685Z,16.24
2022-10-11T01:59:12.302Z,16.26
2022-10-11T02:02:41.148Z,16.14
2022-10-11T02:06:01.192Z,16.23
2022-10-11T02:09:10.960Z,16.29
2022-10-11T02:12:17.985Z,16.43
2022-10-11T02:15:22.644Z,16.36
2022-10-11T02:18:29.965Z,16.38
2022-10-11T02:21:34.440Z,16.42
2022-10-11T02:24:40.099Z,16.22
2022-10-11T02:27:45.396Z,16.14
2022-10-11T02:30:49.574Z,15.97
2022-10-11T02:34:09.580Z,16.06
2022-10-11T02:37:26.665Z,16.04
2022-10-11T02:40:33.406Z,16.10
2022-10-11T02:43:43.504Z,15.87
2022-10-11T02:46:46.612Z,15.65
2022-10-11T02:49:48.053Z,15.58
2022-10-11T02:52:49.820Z,15.59
2022-10-11T02:55:53.380Z,15.64
2022-10-11T02:58:54.800Z,15.89
2022-10-11T03:01:56.292Z,15.90
2022-10-11T03:04:57.753Z,15.82
2022-10-11T03:07:59.288Z,15.79
2022-10-11T03:11:00.978Z,15.59
2022-10-11T03:14:02.564Z,15.58
2022-10-11T03:17:23.752Z,15.52
2022-10-11T03:20:25.428Z,15.46
2022-10-11T03:23:26.889Z,15.49
2022-10-11T03:26:28.341Z,15.61
2022-10-11T03:29:29.818Z,15.54
2022-10-11T03:32:31.276Z,15.44
2022-10-11T03:35:32.697Z,15.24
2022-10-11T03:38:34.269Z,15.30
2022-10-11T03:41:35.725Z,15.42
2022-10-11T03:44:38.659Z,15.71
2022-10-11T03:47:40.505Z,15.90
2022-10-11T03:50:42.301Z,15.83
2022-10-11T03:53:43.814Z,15.83
2022-10-11T03:56:45.318Z,15.81
2022-10-11T03:59:48.007Z,15.75
2022-10-11T04:02:49.460Z,15.73
2022-10-11T04:05:51.001Z,15.68
2022-10-11T04:08:52.541Z,15.62
2022-10-11T04:11:53.940Z,15.64
2022-10-11T04:14:55.321Z,15.39
2022-10-11T04:17:56.739Z,15.05
2022-10-11T04:20:58.147Z,15.00
2022-10-11T04:23:59.584Z,14.98
2022-10-11T04:27:01.026Z,14.95
2022-10-11T04:30:02.608Z,14.77
2022-10-11T04:33:04.020Z,14.74
2022-10-11T04:36:06.194Z,14.95
2022-10-11T04:39:08.548Z,15.01
2022-10-11T04:42:10.195Z,15.11
2022-10-11T04:45:11.584Z,14.83
2022-10-11T04:48:13.993Z,14.96
2022-10-11T04:51:15.442Z,15.13
2022-10-11T04:54:16.874Z,15.15
2022-10-11T04:57:18.303Z,15.31
2022-10-11T05:00:19.789Z,15.42
2022-10-11T05:03:21.370Z,15.31
2022-10-11T05:06:23.044Z,15.32
2022-10-11T05:09:24.561Z,15.33
2022-10-11T05:12:26.174Z,15.31
2022-10-11T05:15:28.096Z,15.34
2022-10-11T05:18:29.956Z,15.23
2022-10-11T05:21:32.001Z,15.16
2022-10-11T05:24:33.480Z,14.99
2022-10-11T05:27:34.947Z,14.85
2022-10-11T05:30:36.418Z,15.08
2022-10-11T05:33:38.321Z,15.09
2022-10-11T05:36:39.840Z,15.19
2022-10-11T05:39:41.259Z,15.07
2022-10-11T05:42:42.902Z,14.80
2022-10-11T05:45:45.221Z,14.62
2022-10-11T05:48:46.685Z,14.48
2022-10-11T05:51:48.086Z,14.34
2022-10-11T05:54:49.544Z,14.27
2022-10-11T05:57:55.872Z,14.26
2022-10-11T06:00:57.436Z,14.46
2022-10-11T06:03:58.970Z,14.42
2022-10-11T06:07:00.363Z,14.24
2022-10-11T06:10:01.869Z,14.42
2022-10-11T06:13:03.384Z,14.26
2022-10-11T06:16:05.432Z,14.56
2022-10-11T06:19:06.984Z,14.69
2022-10-11T06:22:11.764Z,14.77
2022-10-11T06:25:13.185Z,14.67
2022-10-11T06:28:14.714Z,14.78
2022-10-11T06:31:16.182Z,14.83
2022-10-11T06:34:17.575Z,14.72
2022-10-11T06:37:19.349Z,14.75
2022-10-11T06:40:20.737Z,14.68
2022-10-11T06:43:22.698Z,14.70
2022-10-11T06:46:26.669Z,14.72
2022-10-11T06:49:28.107Z,14.63
2022-10-11T06:52:29.615Z,14.58
2022-10-11T06:55:31.769Z,14.68
2022-10-11T06:58:33.454Z,14.59
2022-10-11T07:01:34.893Z,14.52
2022-10-11T07:04:36.477Z,14.44
2022-10-11T07:07:37.912Z,14.47
2022-10-11T07:10:39.308Z,14.62
2022-10-11T07:13:41.064Z,14.74
2022-10-11T07:16:42.504Z,14.70
2022-10-11T07:19:43.972Z,14.79
2022-10-11T07:22:45.406Z,14.78
2022-10-11T07:25:47.319Z,14.89
2022-10-11T07:28:48.927Z,14.96
2022-10-11T07:31:50.918Z,14.61
2022-10-11T07:34:52.341Z,14.89
2022-10-11T07:37:53.811Z,14.77
2022-10-11T07:40:55.282Z,14.86
2022-10-11T07:43:59.118Z,14.91
2022-10-11T07:47:00.556Z,14.75
2022-10-11T07:50:02.213Z,14.97
2022-10-11T07:53:04.135Z,15.13
2022-10-11T07:56:06.534Z,15.07
2022-10-11T07:59:08.357Z,15.12
2022-10-11T08:02:11.999Z,15.13
2022-10-11T08:05:13.707Z,15.20
2022-10-11T08:08:15.247Z,15.13
2022-10-11T08:11:28.478Z,14.97
2022-10-11T08:14:29.909Z,14.90
2022-10-11T08:17:31.301Z,14.62
2022-10-11T08:20:33.094Z,15.00
2022-10-11T08:23:34.785Z,15.44
2022-10-11T08:26:36.330Z,15.37
2022-10-11T08:29:37.748Z,15.21
2022-10-11T08:32:39.704Z,14.96
2022-10-11T08:35:41.124Z,15.12
2022-10-11T08:38:42.664Z,14.95
2022-10-11T08:41:56.411Z,15.00
2022-10-11T08:45:11.007Z,14.91
2022-10-11T08:48:18.470Z,14.97
2022-10-11T08:51:38.522Z,14.76
2022-10-11T08:54:49.376Z,14.71
2022-10-11T08:57:54.095Z,14.90
2022-10-11T09:00:57.935Z,14.90
2022-10-11T09:04:03.709Z,14.65
2022-10-11T09:07:08.873Z,14.74
2022-10-11T09:10:31.909Z,14.94
2022-10-11T09:13:45.758Z,14.95
2022-10-11T09:17:05.547Z,14.67
2022-10-11T09:20:15.793Z,14.70
2022-10-11T09:23:51.993Z,14.76
2022-10-11T09:27:12.821Z,14.96
2022-10-11T09:30:20.139Z,14.96
2022-10-11T09:33:39.946Z,14.89
2022-10-11T09:36:57.545Z,15.07
2022-10-11T09:40:27.253Z,14.91
2022-10-11T09:43:28.738Z,14.90
2022-10-11T09:46:30.756Z,15.23
2022-10-11T09:49:38.773Z,15.23
2022-10-11T09:52:51.536Z,14.94
2022-10-11T09:56:01.741Z,15.13
2022-10-11T09:59:30.971Z,14.89
2022-10-11T10:02:49.542Z,14.80
2022-10-11T10:06:13.868Z,15.06
2022-10-11T10:09:27.064Z,15.30
2022-10-11T10:12:30.403Z,15.10
2022-10-11T10:15:37.260Z,15.63
2022-10-11T10:18:51.867Z,15.39
2022-10-11T10:21:55.480Z,15.49
2022-10-11T10:25:00.093Z,16.22
2022-10-11T10:28:04.858Z,16.50
2022-10-11T10:31:22.251Z,17.16
2022-10-11T10:34:33.475Z,17.50
2022-10-11T10:37:42.672Z,17.07
2022-10-11T10:40:48.165Z,17.24
2022-10-11T10:43:57.060Z,17.60
2022-10-11T10:47:01.533Z,17.07
2022-10-11T10:50:18.835Z,16.83
2022-10-11T10:53:29.420Z,16.28
2022-10-11T10:56:38.778Z,16.03
2022-10-11T10:59:46.307Z,16.23
2022-10-11T11:03:05.505Z,16.29
2022-10-11T11:06:12.112Z,16.64
2022-10-11T11:09:22.779Z,16.61
2022-10-11T11:12:37.507Z,16.37
2022-10-11T11:15:42.875Z,16.52
2022-10-11T11:18:58.308Z,16.80
2022-10-11T11:22:15.983Z,16.87
2022-10-11T11:25:48.229Z,16.97
2022-10-11T11:29:19.745Z,16.60
2022-10-11T11:32:55.589Z,16.98
2022-10-11T11:36:03.094Z,16.82
2022-10-11T11:39:11.110Z,16.64
2022-10-11T11:42:26.482Z,16.43
2022-10-11T11:45:33.683Z,16.71
2022-10-11T11:48:35.542Z,17.10
2022-10-11T11:51:42.708Z,17.08
2022-10-11T11:55:04.176Z,16.89
2022-10-11T11:58:33.935Z,16.87
2022-10-11T12:02:01.412Z,16.90
2022-10-11T12:05:06.689Z,17.07
2022-10-11T12:08:37.843Z,16.88
2022-10-11T12:11:41.428Z,16.65
2022-10-11T12:14:42.917Z,17.07
2022-10-11T12:17:56.501Z,17.16
2022-10-11T12:21:16.673Z,17.16
2022-10-11T12:24:18.021Z,17.19
2022-10-11T12:27:39.707Z,16.69
2022-10-11T12:30:47.114Z,16.82
2022-10-11T12:34:02.641Z,16.80
2022-10-11T12:37:19.564Z,16.58
2022-10-11T12:40:54.818Z,16.54
2022-10-11T12:44:14.792Z,16.94
2022-10-11T12:47:32.847Z,17.10
2022-10-11T12:50:37.411Z,17.34
2022-10-11T12:54:27.548Z,17.22
2022-10-11T12:57:53.147Z,16.98
2022-10-11T13:00:55.577Z,17.04
2022-10-11T13:04:00.988Z,16.78
2022-10-11T13:07:07.447Z,17.01
2022-10-11T13:10:15.842Z,16.86
2022-10-11T13:13:24.686Z,17.01
2022-10-11T13:16:29.284Z,16.83
2022-10-11T13:19:32.922Z,16.84
2022-10-11T13:22:35.760Z,16.85
2022-10-11T13:25:37.735Z,16.92
2022-10-11T13:28:39.269Z,17.00
2022-10-11T13:31:41.124Z,17.07
2022-10-11T13:34:46.669Z,16.90
2022-10-11T13:37:48.802Z,16.84
2022-10-11T13:40:51.295Z,17.14
2022-10-11T13:43:53.408Z,17.18
2022-10-11T13:46:55.085Z,17.13
2022-10-11T13:50:16.977Z,17.14
2022-10-11T13:53:18.313Z,17.16
2022-10-11T13:56:19.812Z,16.99
2022-10-11T13:59:28.041Z,17.16
2022-10-11T14:02:30.068Z,17.18
2022-10-11T14:05:36.756Z,17.11
2022-10-11T14:08:46.665Z,17.01
2022-10-11T14:11:48.744Z,17.21
2022-10-11T14:14:50.110Z,17.22
2022-10-11T14:17:51.699Z,17.05
2022-10-11T14:20:53.183Z,16.98
2022-10-11T14:24:07.434Z,17.01
2022-10-11T14:27:17.248Z,17.15
2022-10-11T14:30:26.602Z,16.93
2022-10-11T14:33:28.967Z,17.00
2022-10-11T14:36:30.416Z,17.13
2022-10-11T14:39:33.113Z,17.07
2022-10-11T14:42:34.544Z,17.02
2022-10-11T14:45:36.584Z,17.03
2022-10-11T14:48:54.208Z,16.67
2022-10-11T14:51:58.472Z,16.98
2022-10-11T14:55:00.599Z,17.13
2022-10-11T14:58:02.423Z,17.04
2022-10-11T15:01:03.923Z,16.97
2022-10-11T15:04:05.402Z,17.04
2022-10-11T15:07:07.144Z,17.02
2022-10-11T15:10:27.844Z,17.09
2022-10-11T15:13:29.251Z,16.85
2022-10-11T15:16:31.130Z,16.83
2022-10-11T15:19:32.710Z,16.97
2022-10-11T15:22:34.114Z,16.89
2022-10-11T15:25:37.729Z,16.86
2022-10-11T15:28:39.257Z,16.89
2022-10-11T15:31:40.820Z,16.72
2022-10-11T15:34:42.291Z,16.78
2022-10-11T15:37:44.314Z,16.81
2022-10-11T15:40:46.936Z,16.94
2022-10-11T15:43:49.336Z,16.74
2022-10-11T15:46:51.099Z,16.65
2022-10-11T15:49:52.556Z,16.82
2022-10-11T15:52:54.491Z,16.86
2022-10-11T15:55:59.061Z,16.81
2022-10-11T15:59:00.556Z,16.73
2022-10-11T16:02:02.066Z,16.80
2022-10-11T16:05:03.897Z,16.87
2022-10-11T16:08:05.462Z,16.78
2022-10-11T16:11:08.250Z,16.65
2022-10-11T16:14:09.769Z,16.61
2022-10-11T16:17:11.334Z,16.62
2022-10-11T16:20:13.166Z,16.64
2022-10-11T16:23:15.305Z,16.54
2022-10-11T16:26:16.729Z,16.67
2022-10-11T16:29:18.435Z,16.63
2022-10-11T16:32:20.390Z,16.54
2022-10-11T16:35:22.050Z,16.50
2022-10-11T16:38:23.472Z,16.51
2022-10-11T16:41:24.951Z,16.60
2022-10-11T16:44:27.743Z,16.67
2022-10-11T16:47:29.189Z,16.61
2022-10-11T16:50:33.340Z,16.57
2022-10-11T16:53:37.313Z,16.49
2022-10-11T16:56:40.102Z,16.45
2022-10-11T16:59:42.049Z,16.53
2022-10-11T17:02:43.809Z,16.44
2022-10-11T17:05:45.260Z,16.52
2022-10-11T17:08:47.108Z,16.48
2022-10-11T17:11:48.726Z,16.54
2022-10-11T17:14:50.729Z,16.60
2022-10-11T17:17:55.627Z,16.66
2022-10-11T17:21:04.449Z,16.55
2022-10-11T17:24:06.697Z,16.54
2022-10-11T17:27:08.394Z,16.57
2022-10-11T17:30:10.828Z,16.45
2022-10-11T17:33:12.202Z,16.30
2022-10-11T17:36:19.461Z,16.32
2022-10-11T17:39:23.412Z,16.32
2022-10-11T17:42:24.988Z,16.27
2022-10-11T17:45:26.636Z,16.30
2022-10-11T17:48:29.044Z,16.15
2022-10-11T17:51:32.132Z,16.10
2022-10-11T17:54:33.807Z,16.00
2022-10-11T17:57:35.524Z,15.96
2022-10-11T18:00:39.025Z,15.95
2022-10-11T18:03:41.565Z,16.03
2022-10-11T18:06:45.108Z,16.03
2022-10-11T18:09:46.706Z,16.10
2022-10-11T18:12:52.233Z,15.89
2022-10-11T18:15:54.033Z,15.85
2022-10-11T18:18:57.383Z,15.77
2022-10-11T18:22:01.998Z,15.85
2022-10-11T18:25:06.890Z,15.67
2022-10-11T18:28:08.448Z,15.77
2022-10-11T18:31:14.136Z,15.85
2022-10-11T18:34:16.266Z,15.78
2022-10-11T18:37:17.848Z,15.60
2022-10-11T18:40:19.411Z,15.71
2022-10-11T18:43:21.039Z,15.77
2022-10-11T18:46:23.845Z,15.75
2022-10-11T18:49:25.651Z,15.59
2022-10-11T18:52:27.229Z,15.47
2022-10-11T18:55:28.857Z,15.30
2022-10-11T18:58:31.797Z,15.25
2022-10-11T19:01:40.072Z,15.50
2022-10-11T19:04:41.954Z,15.42
2022-10-11T19:07:43.605Z,15.57
2022-10-11T19:10:45.497Z,15.59
2022-10-11T19:13:47.092Z,15.46
2022-10-11T19:16:51.414Z,15.30
2022-10-11T19:19:53.097Z,15.31
2022-10-11T19:22:54.704Z,15.28
2022-10-11T19:25:59.309Z,15.23
2022-10-11T19:29:06.571Z,15.27
2022-10-11T19:32:08.253Z,15.23
2022-10-11T19:35:10.091Z,15.22
2022-10-11T19:38:11.770Z,15.22
2022-10-11T19:41:15.684Z,15.10
2022-10-11T19:44:17.432Z,15.19
2022-10-11T19:47:19.035Z,15.22
2022-10-11T19:50:20.653Z,15.00
2022-10-11T19:53:22.417Z,14.98
2022-10-11T19:56:24.505Z,14.84
2022-10-11T19:59:28.046Z,14.74
2022-10-11T20:02:29.858Z,14.68
2022-10-11T20:05:37.335Z,14.53
2022-10-11T20:08:39.452Z,14.56
2022-10-11T20:11:41.003Z,14.49
2022-10-11T20:14:42.837Z,14.24
2022-10-11T20:17:50.325Z,14.21
2022-10-11T20:20:56.841Z,14.38
2022-10-11T20:24:01.425Z,14.60
2022-10-11T20:27:06.885Z,14.59
2022-10-11T20:30:09.536Z,14.60
2022-10-11T20:33:11.154Z,14.43
2022-10-11T20:36:23.866Z,14.36
2022-10-11T20:39:25.465Z,14.20
2022-10-11T20:42:29.755Z,14.10
2022-10-11T20:45:31.437Z,13.97
2022-10-11T20:48:33.937Z,13.83
2022-10-11T20:51:38.316Z,13.95
2022-10-11T20:54:41.491Z,13.73
2022-10-11T20:57:42.908Z,13.86
2022-10-11T21:00:44.414Z,13.97
2022-10-11T21:03:46.189Z,13.76
2022-10-11T21:06:48.598Z,13.52
2022-10-11T21:09:49.999Z,13.62
2022-10-11T21:12:51.377Z,13.70
2022-10-11T21:15:53.229Z,13.72
2022-10-11T21:18:57.597Z,13.57
2022-10-11T21:21:59.058Z,13.57
2022-10-11T21:25:00.550Z,13.58
2022-10-11T21:28:03.040Z,13.64
2022-10-11T21:31:12.579Z,13.59
2022-10-11T21:34:14.136Z,13.76
2022-10-11T21:37:15.575Z,13.73
2022-10-11T21:40:17.357Z,13.77
2022-10-11T21:43:18.786Z,13.85
2022-10-11T21:46:41.712Z,13.88
2022-10-11T21:49:47.503Z,13.82
2022-10-11T21:52:49.095Z,13.71
2022-10-11T21:55:57.370Z,13.81
2022-10-11T21:58:58.802Z,13.78
2022-10-11T22:02:02.011Z,13.65
2022-10-11T22:05:03.807Z,13.86
2022-10-11T22:08:05.259Z,13.84
2022-10-11T22:11:07.824Z,13.73
2022-10-11T22:14:09.327Z,13.83
2022-10-11T22:17:10.760Z,13.70
2022-10-11T22:20:12.193Z,13.73
2022-10-11T22:23:13.770Z,13.66
2022-10-11T22:26:18.310Z,13.88
2022-10-11T22:29:19.723Z,13.73
2022-10-11T22:32:21.164Z,13.69
2022-10-11T22:35:22.989Z,13.88
2022-10-11T22:38:25.299Z,13.79
2022-10-11T22:41:26.664Z,13.30
2022-10-11T22:44:28.239Z,13.38
2022-10-11T22:47:29.636Z,13.53
2022-10-11T22:50:31.049Z,13.58
2022-10-11T22:53:32.641Z,13.39
2022-10-11T22:56:34.097Z,13.28
2022-10-11T22:59:35.711Z,13.23
2022-10-11T23:02:37.108Z,13.41
2022-10-11T23:05:38.571Z,13.37
2022-10-11T23:08:40.197Z,13.09
2022-10-11T23:11:42.696Z,13.24
2022-10-11T23:14:44.327Z,13.39
2022-10-11T23:17:46.130Z,13.46
2022-10-11T23:20:47.605Z,13.42
2022-10-11T23:23:52.294Z,13.38
2022-10-11T23:26:53.683Z,13.31
2022-10-11T23:29:55.119Z,13.38
2022-10-11T23:32:56.765Z,13.34
2022-10-11T23:35:58.257Z,13.21
2022-10-11T23:38:59.763Z,13.40
2022-10-11T23:42:01.196Z,13.33
2022-10-11T23:45:02.811Z,13.27
2022-10-11T23:48:04.544Z,13.24
2022-10-11T23:51:06.495Z,13.46
2022-10-11T23:54:08.127Z,13.52
2022-10-11T23:57:09.639Z,13.51
